Le Roy, New York
Current Conditions -  °F | °C
As of 2:54 PM on Thursday 18 Dec 2014 (Local Time) from KROC Reporting Station
Overcast Overcast  
Wind Chill: 24°   Ceiling: 1700
Heat Index: 32°   Visibility: 10mi
Dew Point: 26°   Wind: 9mph
Humidity: 79%   Direction: 280°W
Pressure: 30.04"   Gusts: NA
Location:  42.98°N, 77.98°W
Report Text: KROC 181954Z 28008KT 10SM OVC017 00/M03 A3004 RMK AO2 SLP181 T00001033
Loading
Personal Weather Stations






























Interactive Weather Map New forecast layout! Learn more

10-Day Weather Forecast

Advertisements
Track Severe Weather on mobile